Time;durP1;ratioP1;P1;durP2;ratioP2;P2;SDS_P1;SDS_P2;PMS_P1;PMS_P2;Temp;Humidity;BMP_temperature;BMP_pressure;BME280_temperature;BME280_humidity;BME280_pressure;Samples;Min_cycle;Max_cycle;Signal;HPM_P1;HPM_P2
2021/09/27 00:01:15;;;;;;;9.10;6.72;;;;;;;16.40;76.47;99596.56;5032465;28;20034;-72
2021/09/27 00:03:40;;;;;;;9.82;7.40;;;;;;;16.39;76.26;99590.41;5015845;28;20412;-71
2021/09/27 00:06:07;;;;;;;8.48;5.40;;;;;;;16.40;75.96;99584.09;5033781;28;20112;-71
2021/09/27 00:08:33;;;;;;;9.07;6.47;;;;;;;16.41;76.45;99591.09;5034985;28;20042;-72
2021/09/27 00:11:02;;;;;;;8.07;6.32;;;;;;;16.41;75.94;99587.59;5036139;28;20029;-71
2021/09/27 00:13:33;;;;;;;9.20;6.88;;;;;;;16.41;75.96;99596.44;5033699;28;20061;-71
2021/09/27 00:15:59;;;;;;;11.07;7.25;;;;;;;16.38;76.00;99588.69;5031689;28;20037;-72
2021/09/27 00:18:26;;;;;;;10.52;8.45;;;;;;;16.33;76.13;99593.50;5023187;28;20585;-71
2021/09/27 00:20:58;;;;;;;8.35;6.50;;;;;;;16.26;76.68;99589.63;5015099;28;20037;-71
2021/09/27 00:23:28;;;;;;;13.95;8.55;;;;;;;16.19;76.95;99591.91;5032159;28;20037;-71
2021/09/27 00:25:54;;;;;;;9.57;6.57;;;;;;;16.13;77.04;99589.72;5030470;28;20480;-71
2021/09/27 00:28:20;;;;;;;9.38;5.35;;;;;;;16.10;77.28;99593.44;5031949;28;20045;-71
2021/09/27 00:30:47;;;;;;;9.85;6.70;;;;;;;16.09;77.34;99591.75;5031854;28;20049;-71
2021/09/27 00:33:13;;;;;;;8.40;5.63;;;;;;;16.13;76.90;99592.38;5031339;28;20032;-71
2021/09/27 00:35:40;;;;;;;9.60;5.90;;;;;;;16.13;77.06;99595.03;5032294;28;20452;-72
2021/09/27 00:38:07;;;;;;;16.42;7.95;;;;;;;16.11;77.20;99596.94;5032931;28;20035;-72
2021/09/27 00:40:38;;;;;;;8.45;6.93;;;;;;;16.10;77.46;99593.44;5032691;28;20856;-71
2021/09/27 00:43:04;;;;;;;10.77;8.65;;;;;;;16.09;76.73;99593.56;5032379;28;20037;-71
2021/09/27 00:45:35;;;;;;;13.23;8.80;;;;;;;16.06;76.90;99599.97;5032974;28;20029;-72
2021/09/27 00:48:00;;;;;;;15.57;7.65;;;;;;;16.00;77.37;99600.44;5031707;28;20104;-71
2021/09/27 00:50:30;;;;;;;8.90;6.53;;;;;;;15.95;77.61;99591.06;5031992;28;20116;-71
2021/09/27 00:52:57;;;;;;;10.50;7.75;;;;;;;15.85;77.56;99586.47;5031419;28;20049;-72
2021/09/27 00:55:24;;;;;;;8.85;6.45;;;;;;;15.86;78.26;99585.50;5031814;28;20033;-71
2021/09/27 00:57:50;;;;;;;11.25;7.70;;;;;;;15.84;78.25;99583.91;5031486;28;20029;-72
2021/09/27 01:00:21;;;;;;;10.40;7.25;;;;;;;15.87;78.16;99581.91;5031767;28;20184;-71
2021/09/27 01:02:47;;;;;;;10.70;7.38;;;;;;;15.91;78.25;99590.47;5005711;28;20037;-71
2021/09/27 01:05:15;;;;;;;8.73;7.00;;;;;;;15.95;78.11;99577.78;5031436;28;20107;-70
2021/09/27 01:08:26;;;;;;;13.30;6.97;;;;;;;16.01;77.63;99578.19;5031475;28;20034;-72
2021/09/27 01:11:34;;;;;;;11.32;5.93;;;;;;;16.08;77.88;99584.75;5050485;28;20124;-71
2021/09/27 01:14:11;;;;;;;8.18;5.38;;;;;;;16.06;77.67;99572.53;5052812;28;20037;-71
2021/09/27 01:17:01;;;;;;;11.05;7.15;;;;;;;16.08;77.72;99581.25;5053914;28;20520;-72
2021/09/27 01:19:38;;;;;;;10.98;6.43;;;;;;;16.13;77.39;99578.22;5053018;28;20090;-72
2021/09/27 01:22:31;;;;;;;7.70;6.40;;;;;;;16.17;77.36;99577.00;5044140;28;20039;-72
2021/09/27 01:25:14;;;;;;;7.78;6.25;;;;;;;16.21;77.29;99571.34;5050846;28;20033;-72
2021/09/27 01:28:00;;;;;;;7.78;5.43;;;;;;;16.27;77.33;99564.75;5050435;28;20037;-72
2021/09/27 01:30:46;;;;;;;8.73;6.78;;;;;;;16.31;77.11;99567.03;5047065;28;20068;-72
2021/09/27 01:33:27;;;;;;;8.18;5.72;;;;;;;16.34;76.69;99567.75;5049773;28;22167;-71
2021/09/27 01:36:12;;;;;;;8.75;6.10;;;;;;;16.35;77.18;99565.00;5038989;28;20048;-71
2021/09/27 01:38:43;;;;;;;12.85;5.40;;;;;;;16.39;76.69;99563.81;5030548;28;20033;-71
2021/09/27 01:41:35;;;;;;;7.00;5.10;;;;;;;16.45;76.91;99557.16;5027849;28;20045;-72
2021/09/27 01:44:13;;;;;;;7.15;5.68;;;;;;;16.49;76.65;99551.47;5030388;28;20037;-72
2021/09/27 01:46:51;;;;;;;9.57;6.32;;;;;;;16.49;76.14;99547.94;5030146;28;20041;-69
2021/09/27 01:49:25;;;;;;;7.28;5.82;;;;;;;16.47;76.92;99553.41;5029363;28;20033;-72
2021/09/27 01:52:18;;;;;;;8.07;6.00;;;;;;;16.44;76.90;99543.00;5013707;28;20044;-72
2021/09/27 01:54:45;;;;;;;7.43;6.18;;;;;;;16.38;76.75;99535.47;5010388;28;20037;-71
2021/09/27 01:57:22;;;;;;;10.25;7.10;;;;;;;16.36;76.86;99532.09;5008801;28;20040;-72
2021/09/27 02:00:16;;;;;;;9.15;6.85;;;;;;;16.35;76.68;99533.06;5009178;28;20038;-72
2021/09/27 02:03:13;;;;;;;9.57;6.05;;;;;;;16.31;77.14;99535.09;5007799;28;20030;-71
2021/09/27 02:05:57;;;;;;;7.70;5.97;;;;;;;16.30;77.38;99527.25;5009860;28;20037;-72
2021/09/27 02:08:29;;;;;;;8.60;6.85;;;;;;;16.28;76.87;99529.19;5013448;28;20535;-72
2021/09/27 02:11:07;;;;;;;7.30;5.93;;;;;;;16.23;77.38;99531.34;5010127;28;20042;-70
2021/09/27 02:13:41;;;;;;;8.45;7.00;;;;;;;16.14;77.64;99518.75;5010505;28;20121;-71
2021/09/27 02:16:15;;;;;;;10.45;6.82;;;;;;;16.07;77.64;99521.91;5013726;28;20042;-70
2021/09/27 02:18:45;;;;;;;9.15;5.80;;;;;;;16.04;77.82;99522.09;5017474;28;20487;-72
2021/09/27 02:21:17;;;;;;;11.15;6.70;;;;;;;16.01;77.61;99517.03;5012386;28;20088;-72
2021/09/27 02:23:52;;;;;;;10.95;6.60;;;;;;;15.95;78.21;99512.19;5011496;28;20156;-70
2021/09/27 02:26:18;;;;;;;11.73;7.07;;;;;;;15.93;78.05;99516.78;5016985;28;20049;-71
2021/09/27 02:28:44;;;;;;;12.55;6.60;;;;;;;15.93;78.09;99510.63;5013707;28;20382;-71
2021/09/27 02:31:19;;;;;;;8.73;6.05;;;;;;;15.92;78.16;99507.09;5013076;28;20034;-71
2021/09/27 02:33:58;;;;;;;11.63;7.03;;;;;;;15.94;78.03;99501.66;5017130;28;20029;-71
2021/09/27 02:36:29;;;;;;;11.85;7.13;;;;;;;15.88;77.97;99508.28;5014413;28;20045;-71
2021/09/27 02:39:29;;;;;;;9.60;6.10;;;;;;;15.88;78.59;99509.13;5011703;28;20505;-71
2021/09/27 02:42:02;;;;;;;12.50;7.15;;;;;;;15.85;78.08;99513.81;5009534;28;20494;-70
2021/09/27 02:44:28;;;;;;;9.23;7.00;;;;;;;15.79;77.87;99507.16;5010664;28;20062;-70
2021/09/27 02:46:56;;;;;;;8.98;7.55;;;;;;;15.68;78.21;99509.78;5009903;28;20053;-71
2021/09/27 02:49:41;;;;;;;11.75;7.00;;;;;;;15.64;78.47;99510.94;5012643;28;20070;-70
2021/09/27 02:52:07;;;;;;;7.57;6.30;;;;;;;15.59;78.60;99505.97;5012975;28;20497;-72
2021/09/27 02:54:41;;;;;;;8.63;7.13;;;;;;;15.52;78.83;99507.38;5012674;28;20076;-72
2021/09/27 02:57:29;;;;;;;11.75;6.93;;;;;;;15.45;79.04;99498.19;5011542;28;20044;-72
2021/09/27 03:00:06;;;;;;;9.52;6.32;;;;;;;15.46;79.39;99497.22;5009842;28;20041;-72
2021/09/27 03:02:54;;;;;;;7.85;6.20;;;;;;;15.42;79.06;99496.59;5025343;28;20037;-72
2021/09/27 03:05:44;;;;;;;10.20;7.15;;;;;;;15.39;79.38;99491.50;5029051;28;20034;-72
2021/09/27 03:08:28;;;;;;;11.73;8.32;;;;;;;15.37;79.10;99498.75;5028786;28;20406;-71
2021/09/27 03:11:41;;;;;;;10.10;7.35;;;;;;;15.37;79.33;99501.41;5028770;28;20037;-72
2021/09/27 03:14:29;;;;;;;11.27;7.20;;;;;;;15.34;79.52;99503.44;5025835;28;20129;-71
2021/09/27 03:17:19;;;;;;;12.43;7.68;;;;;;;15.27;79.58;99504.84;5048926;28;20033;-71
2021/09/27 03:19:54;;;;;;;14.45;7.30;;;;;;;15.27;79.51;99502.19;5047670;28;20040;-71
2021/09/27 03:22:38;;;;;;;12.95;7.95;;;;;;;15.24;79.65;99498.81;5048435;28;20039;-72
2021/09/27 03:25:09;;;;;;;8.60;6.40;;;;;;;15.25;79.44;99492.53;5046884;28;20029;-71
2021/09/27 03:28:08;;;;;;;11.23;7.28;;;;;;;15.24;79.24;99492.66;5048557;28;20786;-72
2021/09/27 03:30:43;;;;;;;12.10;8.63;;;;;;;15.21;79.13;99495.50;5049344;28;20086;-72
2021/09/27 03:33:20;;;;;;;10.93;7.50;;;;;;;15.21;79.68;99496.38;5048467;28;20124;-71
2021/09/27 03:35:59;;;;;;;13.38;8.48;;;;;;;15.20;78.96;99494.66;5028023;28;20121;-72
2021/09/27 03:38:32;;;;;;;10.90;7.97;;;;;;;15.21;79.46;99492.84;5008438;28;20033;-72
2021/09/27 03:41:01;;;;;;;9.32;7.25;;;;;;;15.22;79.65;99487.44;5008567;28;20045;-73
2021/09/27 03:44:12;;;;;;;11.48;7.80;;;;;;;15.24;78.95;99493.50;5008439;28;20068;-72
2021/09/27 03:46:59;;;;;;;9.77;7.82;;;;;;;15.24;78.81;99492.66;5011445;28;20033;-72
2021/09/27 03:49:33;;;;;;;12.85;9.05;;;;;;;15.24;79.58;99500.63;5010068;28;20050;-72
2021/09/27 03:52:34;;;;;;;11.17;7.67;;;;;;;15.25;78.53;99494.34;5012093;28;20061;-71
2021/09/27 03:55:09;;;;;;;10.10;7.05;;;;;;;15.23;78.84;99499.78;5011599;28;20033;-72
2021/09/27 03:57:57;;;;;;;10.63;8.32;;;;;;;15.24;79.34;99506.78;5008837;28;20030;-71
2021/09/27 04:00:31;;;;;;;11.13;8.48;;;;;;;15.23;79.26;99506.88;5012531;28;20124;-72
2021/09/27 04:03:06;;;;;;;10.90;8.80;;;;;;;15.19;79.40;99503.59;5007754;28;20038;-71
2021/09/27 04:05:48;;;;;;;10.82;8.38;;;;;;;15.19;79.69;99508.91;5008569;28;20052;-70
2021/09/27 04:08:21;;;;;;;11.70;8.90;;;;;;;15.27;79.89;99499.53;5007021;28;20124;-71
2021/09/27 04:11:27;;;;;;;12.05;9.23;;;;;;;15.36;80.53;99505.03;5008521;28;20505;-71
2021/09/27 04:14:09;;;;;;;15.93;11.68;;;;;;;15.49;80.54;99506.78;5008508;28;20114;-71
2021/09/27 04:17:05;;;;;;;10.68;9.57;;;;;;;15.59;80.54;99498.00;5008049;28;20579;-71
2021/09/27 04:19:42;;;;;;;11.48;9.93;;;;;;;15.67;79.87;99495.59;5007438;28;20040;-71
2021/09/27 04:22:25;;;;;;;12.32;11.02;;;;;;;15.74;79.83;99506.66;5020431;28;20511;-71
2021/09/27 04:25:05;;;;;;;14.43;10.07;;;;;;;15.79;79.50;99498.34;5028438;28;20037;-71
2021/09/27 04:27:47;;;;;;;13.10;9.63;;;;;;;15.81;79.52;99493.78;5025898;28;20143;-71
2021/09/27 04:30:21;;;;;;;13.38;9.40;;;;;;;15.84;79.39;99491.72;5027240;28;20040;-72
2021/09/27 04:33:16;;;;;;;13.15;11.02;;;;;;;15.87;79.40;99493.28;5026674;28;20025;-71
2021/09/27 04:35:48;;;;;;;13.82;9.57;;;;;;;15.88;79.10;99493.19;5027527;28;20034;-70
2021/09/27 04:38:16;;;;;;;13.63;10.73;;;;;;;15.89;79.19;99491.38;5028038;28;20037;-71
2021/09/27 04:41:06;;;;;;;11.00;8.18;;;;;;;15.91;79.18;99492.09;5028023;28;20042;-71
2021/09/27 04:43:31;;;;;;;13.57;11.85;;;;;;;15.91;78.84;99497.41;5028238;28;20041;-72
2021/09/27 04:46:23;;;;;;;12.27;10.15;;;;;;;15.90;78.69;99493.09;5026734;28;20033;-72
2021/09/27 04:49:14;;;;;;;13.80;10.07;;;;;;;15.91;78.27;99481.47;5031576;28;20037;-71
2021/09/27 04:51:55;;;;;;;16.38;12.20;;;;;;;15.87;78.58;99486.19;5050525;28;20525;-71
2021/09/27 04:54:45;;;;;;;11.15;9.68;;;;;;;15.87;78.37;99485.31;5051361;28;20095;-71
2021/09/27 04:57:26;;;;;;;13.82;9.88;;;;;;;15.83;78.41;99484.72;5050541;28;20033;-71
2021/09/27 04:59:51;;;;;;;12.88;10.75;;;;;;;15.83;78.59;99492.69;5051263;28;20049;-71
2021/09/27 05:02:46;;;;;;;13.13;11.75;;;;;;;15.82;78.43;99492.78;5050183;28;20041;-71
2021/09/27 05:05:29;;;;;;;14.40;10.82;;;;;;;15.74;78.47;99484.56;5051409;28;20501;-71
2021/09/27 05:08:28;;;;;;;11.27;10.07;;;;;;;15.63;79.18;99474.72;5049850;28;20093;-71
2021/09/27 05:11:31;;;;;;;12.32;9.70;;;;;;;15.61;79.32;99471.31;5051268;28;20033;-72
2021/09/27 05:14:22;;;;;;;20.00;16.55;;;;;;;15.58;79.57;99471.53;5051724;28;20044;-72
2021/09/27 05:17:02;;;;;;;15.40;10.68;;;;;;;15.60;79.62;99470.47;5049419;28;20060;-72
2021/09/27 05:20:43;;;;;;;13.52;10.25;;;;;;;15.64;78.99;99474.59;5050807;28;20055;-71
2021/09/27 05:23:08;;;;;;;16.10;10.55;;;;;;;15.65;79.17;99476.31;4969898;28;20478;-72
2021/09/27 05:25:58;;;;;;;18.48;11.85;;;;;;;15.70;78.90;99477.78;4965739;28;20042;-71
2021/09/27 05:28:48;;;;;;;14.85;12.20;;;;;;;15.67;79.12;99470.84;5017051;28;20033;-71
2021/09/27 05:31:46;;;;;;;13.30;11.70;;;;;;;15.71;79.12;99480.31;5049896;28;20037;-71
2021/09/27 05:34:34;;;;;;;20.25;11.77;;;;;;;15.74;79.46;99477.44;5050323;28;20036;-72
2021/09/27 05:37:15;;;;;;;13.90;12.15;;;;;;;15.75;79.30;99483.59;5036073;28;20080;-70
2021/09/27 05:40:10;;;;;;;13.57;11.18;;;;;;;15.81;79.19;99483.13;5011206;28;20058;-71
2021/09/27 05:42:54;;;;;;;14.18;12.63;;;;;;;15.85;79.04;99484.59;5016294;28;20026;-71
2021/09/27 05:45:38;;;;;;;12.13;10.77;;;;;;;15.91;79.22;99470.00;5009968;28;20052;-71
2021/09/27 05:48:15;;;;;;;12.55;10.82;;;;;;;15.92;79.06;99471.69;5017713;28;20049;-71
2021/09/27 05:50:51;;;;;;;17.13;12.00;;;;;;;15.93;79.22;99474.22;5012295;28;20034;-70
2021/09/27 05:53:23;;;;;;;15.35;12.35;;;;;;;15.96;78.88;99473.16;5010382;28;20490;-71
2021/09/27 05:55:59;;;;;;;12.05;10.73;;;;;;;15.98;79.13;99472.06;5010688;28;20056;-71
2021/09/27 05:58:55;;;;;;;12.90;10.40;;;;;;;16.01;78.93;99468.31;5008564;28;20084;-71
2021/09/27 06:01:30;;;;;;;;;;;;;;;16.03;78.98;99466.41;5008957;28;20025;-72
2021/09/27 06:04:07;;;;;;;12.77;10.27;;;;;;;16.01;79.16;99463.84;5010741;28;20288;-72
2021/09/27 06:06:44;;;;;;;13.45;11.73;;;;;;;16.09;78.36;99464.09;5017368;28;20042;-72
2021/09/27 06:09:19;;;;;;;15.85;11.85;;;;;;;16.13;78.60;99461.22;5010376;28;20040;-72
2021/09/27 06:12:00;;;;;;;12.73;10.70;;;;;;;16.13;78.60;99462.06;5009873;28;20056;-72
2021/09/27 06:14:26;;;;;;;14.27;11.45;;;;;;;16.14;77.94;99469.06;5010438;28;20099;-71
2021/09/27 06:17:02;;;;;;;17.10;13.15;;;;;;;16.14;78.15;99458.41;5009959;28;20382;-71
2021/09/27 06:19:46;;;;;;;11.40;9.63;;;;;;;16.20;78.10;99459.78;5013710;28;20034;-71
2021/09/27 06:22:30;;;;;;;17.95;13.95;;;;;;;16.21;77.85;99458.78;5024838;28;20103;-71
2021/09/27 06:24:56;;;;;;;12.57;10.13;;;;;;;16.25;77.85;99454.94;5028463;28;20029;-71
2021/09/27 06:27:59;;;;;;;13.60;10.32;;;;;;;16.33;77.56;99452.53;5027835;28;20041;-71
2021/09/27 06:30:43;;;;;;;13.05;9.45;;;;;;;16.40;77.07;99451.06;5040507;28;20114;-70
2021/09/27 06:33:11;;;;;;;10.88;9.57;;;;;;;16.49;77.15;99452.13;5051208;28;20033;-71
2021/09/27 06:35:38;;;;;;;11.18;9.38;;;;;;;16.57;76.91;99449.75;5050945;28;20063;-72
2021/09/27 06:38:08;;;;;;;10.90;8.95;;;;;;;16.64;76.80;99448.28;5049438;28;20033;-72
2021/09/27 06:40:37;;;;;;;12.10;8.32;;;;;;;16.73;76.46;99444.88;5048032;28;20039;-71
2021/09/27 06:43:02;;;;;;;10.98;8.90;;;;;;;16.85;75.71;99447.56;5049280;28;20072;-73
2021/09/27 06:45:27;;;;;;;9.25;7.68;;;;;;;16.95;75.39;99449.34;5069845;28;20488;-73
2021/09/27 06:47:53;;;;;;;8.82;7.03;;;;;;;17.02;75.00;99440.88;5068106;28;20036;-71
2021/09/27 06:50:19;;;;;;;12.10;7.82;;;;;;;17.12;74.58;99434.66;5068321;28;20182;-72
2021/09/27 06:52:44;;;;;;;11.10;7.10;;;;;;;17.21;74.40;99434.88;5070003;28;20032;-73
2021/09/27 06:55:11;;;;;;;7.88;6.93;;;;;;;17.32;73.54;99430.34;5053735;28;20028;-72
2021/09/27 06:57:37;;;;;;;11.60;5.90;;;;;;;17.38;73.03;99427.19;5068814;28;20496;-73
2021/09/27 07:00:05;;;;;;;9.10;5.93;;;;;;;17.49;72.96;99426.28;5069972;28;20047;-71
2021/09/27 07:02:30;;;;;;;8.18;6.18;;;;;;;17.57;72.39;99412.28;5068298;28;20036;-71
2021/09/27 07:04:55;;;;;;;8.90;5.97;;;;;;;17.62;72.15;99414.56;5069945;28;20029;-71
2021/09/27 07:07:21;;;;;;;10.25;5.25;;;;;;;17.73;71.92;99412.69;5052069;28;20100;-72
2021/09/27 07:09:46;;;;;;;6.30;5.30;;;;;;;17.80;71.48;99416.56;5047145;28;20473;-71
2021/09/27 07:12:12;;;;;;;7.32;5.15;;;;;;;17.90;71.58;99413.13;5048272;28;20119;-71
2021/09/27 07:14:38;;;;;;;5.82;4.82;;;;;;;17.97;71.20;99422.28;5049138;28;20136;-70
2021/09/27 07:17:04;;;;;;;6.20;4.95;;;;;;;18.04;70.89;99420.78;5047413;28;20033;-69
2021/09/27 07:19:30;;;;;;;6.72;4.47;;;;;;;18.10;70.70;99427.41;5061930;28;20349;-69
2021/09/27 07:21:55;;;;;;;11.57;5.07;;;;;;;18.16;70.44;99425.06;5055531;28;20078;-69
2021/09/27 07:24:24;;;;;;;7.43;5.25;;;;;;;18.19;70.68;99430.13;5047429;28;20554;-69
2021/09/27 07:26:49;;;;;;;5.40;4.60;;;;;;;18.26;70.41;99430.41;5048861;28;20500;-68
2021/09/27 07:29:14;;;;;;;5.53;4.05;;;;;;;18.30;70.49;99431.00;5048547;28;20041;-70
2021/09/27 07:31:40;;;;;;;6.43;4.93;;;;;;;18.33;69.91;99434.25;5048102;28;20116;-69
2021/09/27 07:34:07;;;;;;;6.97;4.43;;;;;;;18.35;69.84;99437.63;5048847;28;20025;-69
2021/09/27 07:36:34;;;;;;;11.38;7.32;;;;;;;18.37;69.87;99429.50;5048942;28;20086;-69
2021/09/27 07:38:59;;;;;;;7.07;4.13;;;;;;;18.43;69.44;99423.63;5049566;28;20036;-70
2021/09/27 07:41:25;;;;;;;16.35;5.40;;;;;;;18.55;69.02;99413.69;5048384;28;20033;-70
2021/09/27 07:43:51;;;;;;;7.40;4.53;;;;;;;18.71;68.51;99421.19;5020049;28;20418;-69
2021/09/27 07:46:18;;;;;;;6.53;4.50;;;;;;;18.83;67.90;99418.31;5008632;28;20033;-70
2021/09/27 07:48:44;;;;;;;7.47;4.13;;;;;;;19.02;67.37;99411.28;5013500;28;20174;-68
2021/09/27 07:51:10;;;;;;;9.10;5.22;;;;;;;19.17;66.37;99409.06;5027608;28;20040;-70
2021/09/27 07:53:35;;;;;;;8.95;4.55;;;;;;;19.21;66.16;99405.97;5026391;28;20030;-69
2021/09/27 07:56:01;;;;;;;7.25;4.22;;;;;;;19.27;66.02;99404.56;5017464;28;20780;-71
2021/09/27 07:58:27;;;;;;;6.68;3.33;;;;;;;19.34;65.80;99405.69;5016907;28;20061;-71
2021/09/27 08:00:53;;;;;;;6.90;3.67;;;;;;;19.39;65.63;99406.09;5020813;28;20068;-71
2021/09/27 08:03:20;;;;;;;4.68;3.78;;;;;;;19.40;65.12;99405.13;5020734;28;20088;-70
2021/09/27 08:05:46;;;;;;;9.23;3.55;;;;;;;19.44;64.78;99403.88;5022375;28;20040;-69
2021/09/27 08:08:12;;;;;;;6.82;3.45;;;;;;;19.56;64.89;99406.38;5019850;28;20037;-68
2021/09/27 08:10:38;;;;;;;7.25;3.95;;;;;;;19.70;64.46;99401.47;5022313;28;20575;-69
2021/09/27 08:13:04;;;;;;;6.70;3.90;;;;;;;19.86;64.03;99406.25;5021783;28;20045;-69
2021/09/27 08:15:35;;;;;;;6.53;3.03;;;;;;;20.11;63.51;99399.41;5021495;28;20038;-67
2021/09/27 08:18:02;;;;;;;5.55;3.20;;;;;;;20.31;62.75;99397.50;5015736;28;20045;-69
2021/09/27 08:20:38;;;;;;;8.07;4.47;;;;;;;20.39;62.56;99391.38;5004873;28;20044;-69
2021/09/27 08:23:04;;;;;;;6.50;3.42;;;;;;;20.48;61.37;99390.50;5009242;28;20417;-68
2021/09/27 08:25:29;;;;;;;7.05;3.42;;;;;;;20.48;61.69;99398.53;5014675;28;20034;-70
2021/09/27 08:27:56;;;;;;;5.90;3.67;;;;;;;20.45;61.26;99412.22;5021601;28;20095;-69
2021/09/27 08:30:29;;;;;;;6.70;3.08;;;;;;;20.28;61.80;99397.78;5024649;28;20044;-69
2021/09/27 08:32:55;;;;;;;5.13;3.90;;;;;;;20.28;61.91;99396.91;5024601;28;20486;-69
2021/09/27 08:35:21;;;;;;;5.88;2.85;;;;;;;20.15;62.03;99402.63;5026702;28;20079;-69
2021/09/27 08:37:47;;;;;;;6.00;3.67;;;;;;;20.11;62.28;99395.88;5027006;28;20168;-68
2021/09/27 08:40:38;;;;;;;5.05;3.20;;;;;;;20.15;62.11;99398.09;5028970;28;20053;-69
2021/09/27 08:43:36;;;;;;;7.55;3.25;;;;;;;20.23;61.85;99402.75;5026610;28;20045;-68
2021/09/27 08:46:21;;;;;;;5.72;3.05;;;;;;;20.71;60.89;99409.72;5024236;28;20928;-73
2021/09/27 08:48:56;;;;;;;5.85;3.35;;;;;;;21.08;59.55;99416.81;5033806;28;20303;-72
2021/09/27 08:51:23;;;;;;;6.28;3.03;;;;;;;21.12;59.17;99410.16;5032810;28;20096;-72
2021/09/27 08:53:52;;;;;;;3.95;2.92;;;;;;;21.14;59.15;99415.34;5034651;28;20029;-73
2021/09/27 08:56:20;;;;;;;5.25;3.47;;;;;;;20.83;59.17;99409.53;5033937;28;20057;-72
2021/09/27 08:59:14;;;;;;;5.40;2.95;;;;;;;20.84;59.32;99411.19;5032152;28;20041;-73
2021/09/27 09:01:40;;;;;;;6.53;3.55;;;;;;;21.22;58.65;99416.28;5027845;28;20120;-72
2021/09/27 09:04:36;;;;;;;3.67;2.97;;;;;;;21.65;57.17;99422.72;5020354;28;20041;-71
2021/09/27 09:07:08;;;;;;;6.20;3.38;;;;;;;21.50;57.73;99418.91;5031046;28;20045;-73
2021/09/27 09:09:48;;;;;;;6.05;3.50;;;;;;;21.43;57.60;99424.03;5010231;28;20037;-72
2021/09/27 09:12:21;;;;;;;7.38;3.60;;;;;;;21.53;57.59;99429.31;5024565;28;20068;-72
2021/09/27 09:15:05;;;;;;;4.00;2.67;;;;;;;21.83;56.41;99425.41;5025966;28;20034;-71
2021/09/27 09:18:03;;;;;;;3.33;2.83;;;;;;;21.74;56.99;99430.84;5035517;28;20033;-71
2021/09/27 09:20:52;;;;;;;7.35;2.85;;;;;;;22.69;53.96;99429.06;5040452;28;20169;-71
2021/09/27 09:23:44;;;;;;;8.13;2.72;;;;;;;22.73;53.86;99427.75;5003160;28;20045;-72
2021/09/27 09:26:23;;;;;;;4.18;2.65;;;;;;;22.25;54.48;99427.38;4997055;28;20707;-73
2021/09/27 09:28:51;;;;;;;4.82;3.22;;;;;;;21.87;55.80;99429.44;4990321;28;20040;-72
2021/09/27 09:31:20;;;;;;;6.45;2.60;;;;;;;21.90;55.87;99432.81;5004547;28;20473;-71
2021/09/27 09:33:52;;;;;;;6.75;3.22;;;;;;;21.83;56.08;99424.53;5009623;28;20057;-71
2021/09/27 09:36:31;;;;;;;6.75;2.95;;;;;;;21.65;56.75;99417.34;5009195;28;20104;-71
2021/09/27 09:38:58;;;;;;;6.07;2.63;;;;;;;21.53;56.85;99425.81;5027055;28;20041;-72
2021/09/27 09:41:51;;;;;;;8.43;3.33;;;;;;;21.46;56.74;99406.81;5021053;28;20500;-71
2021/09/27 09:44:19;;;;;;;5.30;2.88;;;;;;;21.01;57.58;99416.56;5035689;28;20396;-72
2021/09/27 09:46:57;;;;;;;6.03;2.33;;;;;;;20.76;58.58;99411.94;5053399;28;20036;-71
2021/09/27 09:49:22;;;;;;;3.65;2.70;;;;;;;20.72;59.01;99416.78;5054353;28;20056;-74
2021/09/27 09:52:01;;;;;;;5.13;2.83;;;;;;;20.71;59.48;99416.91;5063393;28;20036;-71
2021/09/27 09:54:28;;;;;;;4.88;2.75;;;;;;;20.69;59.25;99425.09;5064566;28;20060;-72
2021/09/27 09:57:05;;;;;;;8.68;3.13;;;;;;;20.58;59.68;99425.31;5041243;28;20028;-72
2021/09/27 09:59:40;;;;;;;6.65;3.58;;;;;;;20.44;59.77;99421.25;5021117;28;20037;-72
2021/09/27 10:02:17;;;;;;;4.82;2.75;;;;;;;20.31;60.62;99428.78;5022385;28;20087;-72
2021/09/27 10:04:49;;;;;;;7.82;2.95;;;;;;;20.23;60.87;99424.16;5023056;28;20041;-71
2021/09/27 10:07:25;;;;;;;3.67;2.75;;;;;;;20.14;61.05;99417.84;5020595;28;20041;-71
2021/09/27 10:09:51;;;;;;;4.00;2.33;;;;;;;20.22;60.99;99416.25;5022754;28;20125;-73
2021/09/27 10:12:40;;;;;;;7.53;3.10;;;;;;;20.43;60.64;99418.69;5022661;28;20171;-71
2021/09/27 10:15:07;;;;;;;5.20;2.72;;;;;;;20.76;59.85;99410.09;5023684;28;20030;-72
2021/09/27 10:17:38;;;;;;;5.38;2.97;;;;;;;20.95;59.49;99406.47;5024360;28;20524;-72
2021/09/27 10:20:20;;;;;;;5.57;3.08;;;;;;;21.00;59.43;99411.38;5024589;28;20523;-73
2021/09/27 10:22:55;;;;;;;5.85;2.63;;;;;;;21.13;58.78;99406.47;5021149;28;20044;-72
2021/09/27 10:25:35;;;;;;;8.05;3.22;;;;;;;21.11;58.77;99413.81;5000101;28;20679;-73
2021/09/27 10:28:04;;;;;;;3.67;2.70;;;;;;;20.87;59.19;99408.22;5022303;28;20040;-72
2021/09/27 10:30:35;;;;;;;5.95;2.60;;;;;;;20.92;58.97;99416.63;5051562;28;20045;-71
2021/09/27 10:33:08;;;;;;;6.85;3.42;;;;;;;20.97;58.47;99417.91;5054475;28;20575;-72
2021/09/27 10:35:37;;;;;;;7.57;3.15;;;;;;;21.00;58.78;99406.84;5050204;28;20061;-75
2021/09/27 10:38:25;;;;;;;5.35;2.85;;;;;;;21.36;58.04;99414.94;5049011;28;20123;-74
2021/09/27 10:40:52;;;;;;;4.72;2.90;;;;;;;21.26;57.85;99405.25;5045879;28;20052;-73
2021/09/27 10:43:23;;;;;;;4.80;2.72;;;;;;;21.22;58.40;99407.41;5027854;28;20073;-73
2021/09/27 10:45:54;;;;;;;4.85;2.53;;;;;;;21.09;57.84;99402.41;5039679;28;20056;-72
2021/09/27 10:48:21;;;;;;;5.45;3.15;;;;;;;21.21;58.07;99405.72;5023504;28;20052;-75
2021/09/27 10:51:01;;;;;;;5.75;2.80;;;;;;;21.21;58.06;99408.41;5027333;28;20036;-72
2021/09/27 10:53:47;;;;;;;4.85;2.75;;;;;;;21.10;57.83;99406.78;5043838;28;20029;-74
2021/09/27 10:56:30;;;;;;;4.00;2.67;;;;;;;21.07;58.55;99400.88;5041265;28;20136;-72
2021/09/27 10:59:02;;;;;;;4.65;2.45;;;;;;;21.01;58.89;99400.50;5045256;28;20048;-72
2021/09/27 11:01:45;;;;;;;6.03;2.70;;;;;;;20.95;58.79;99405.63;5045059;28;20079;-76
2021/09/27 11:04:24;;;;;;;3.38;2.55;;;;;;;20.85;59.29;99410.22;5025168;28;20053;-73
2021/09/27 11:06:55;;;;;;;5.32;3.13;;;;;;;20.83;59.52;99406.84;5008110;28;20064;-72
2021/09/27 11:09:29;;;;;;;3.65;2.67;;;;;;;20.74;59.70;99401.38;5023616;28;20408;-73
2021/09/27 11:12:27;;;;;;;4.43;2.45;;;;;;;20.75;59.76;99399.56;5022985;28;20057;-73
2021/09/27 11:14:55;;;;;;;5.35;3.72;;;;;;;20.71;59.70;99390.13;5023826;28;20452;-72
2021/09/27 11:17:39;;;;;;;3.80;2.80;;;;;;;20.75;59.53;99389.69;5019364;28;20030;-75
2021/09/27 11:20:43;;;;;;;5.88;3.45;;;;;;;20.82;59.72;99394.44;5024725;28;20026;-72
2021/09/27 11:23:26;;;;;;;6.60;2.80;;;;;;;20.94;59.41;99398.56;5047138;28;20037;-73
2021/09/27 11:26:19;;;;;;;7.88;2.72;;;;;;;20.91;58.91;99397.03;5043794;28;20496;-72
2021/09/27 11:28:48;;;;;;;4.25;2.50;;;;;;;21.11;58.66;99394.22;5024329;28;20370;-72
2021/09/27 11:31:16;;;;;;;5.97;2.97;;;;;;;21.29;57.86;99387.03;5022351;28;20140;-71
2021/09/27 11:33:41;;;;;;;4.85;2.00;;;;;;;21.31;57.61;99387.69;5013828;28;20037;-75
2021/09/27 11:36:13;;;;;;;5.07;2.33;;;;;;;21.19;57.63;99368.34;5008539;28;20043;-72
2021/09/27 11:38:42;;;;;;;13.52;2.53;;;;;;;21.20;57.75;99361.16;5025048;28;20029;-71
2021/09/27 11:41:13;;;;;;;6.57;2.50;;;;;;;21.21;57.18;99358.28;5021070;28;20119;-72
2021/09/27 11:44:00;;;;;;;5.57;2.33;;;;;;;21.21;57.03;99352.09;5018260;28;20040;-73
2021/09/27 11:46:32;;;;;;;5.65;2.13;;;;;;;21.28;56.65;99353.16;5023313;28;20041;-73
2021/09/27 11:49:26;;;;;;;5.15;2.40;;;;;;;21.29;56.68;99354.00;5023711;28;20037;-73
2021/09/27 11:52:13;;;;;;;4.47;2.30;;;;;;;21.22;56.31;99354.63;5023848;28;20041;-73
2021/09/27 11:54:55;;;;;;;3.65;2.25;;;;;;;21.10;56.47;99350.50;5024185;28;20052;-73
2021/09/27 11:57:41;;;;;;;4.90;2.05;;;;;;;21.01;56.03;99360.28;5027178;28;20048;-72
2021/09/27 12:00:25;;;;;;;4.68;2.05;;;;;;;20.91;56.35;99353.34;5030110;28;20144;-74
2021/09/27 12:03:09;;;;;;;3.58;2.05;;;;;;;20.79;56.47;99350.03;5028925;28;20110;-73
2021/09/27 12:05:46;;;;;;;3.67;2.45;;;;;;;20.67;56.41;99346.72;5030262;28;20041;-73
2021/09/27 12:08:24;;;;;;;3.17;2.03;;;;;;;20.64;57.15;99343.50;5017964;28;20091;-74
2021/09/27 12:11:05;;;;;;;4.25;2.10;;;;;;;20.57;57.15;99340.59;5030527;28;20048;-71
2021/09/27 12:13:55;;;;;;;2.35;1.75;;;;;;;20.52;57.52;99338.31;5029252;28;20034;-72